Time;durP1;ratioP1;P1;durP2;ratioP2;P2;SDS_P1;SDS_P2;PMS_P1;PMS_P2;Temp;Humidity;BMP_temperature;BMP_pressure;BME280_temperature;BME280_humidity;BME280_pressure;Samples;Min_cycle;Max_cycle;Signal;HPM_P1;HPM_P2
2022/03/13 00:00:26;;;;;;;10.77;4.97;;;;;;;;;;5095454;28;20062;-80
2022/03/13 00:02:55;;;;;;;13.23;4.82;;;;;;;;;;5101392;28;20036;-79
2022/03/13 00:05:23;;;;;;;14.65;4.95;;;;;;;;;;5121163;28;20040;-78
2022/03/13 00:07:55;;;;;;;13.15;4.70;;;;;;;;;;5100557;28;20177;-78
2022/03/13 00:10:27;;;;;;;12.77;4.80;;;;;;;;;;5094565;28;20075;-79
2022/03/13 00:12:56;;;;;;;11.50;4.88;;;;;;;;;;5087625;28;20072;-79
2022/03/13 00:15:34;;;;;;;11.45;4.57;;;;;;;;;;5103816;28;20443;-79
2022/03/13 00:18:02;;;;;;;10.35;4.57;;;;;;;;;;5107144;28;20401;-78
2022/03/13 00:20:33;;;;;;;11.25;5.07;;;;;;;;;;5108865;28;20068;-78
2022/03/13 00:23:01;;;;;;;10.32;5.05;;;;;;;;;;5112451;28;20108;-80
2022/03/13 00:25:29;;;;;;;18.98;5.25;;;;;;;;;;5095819;28;20079;-81
2022/03/13 00:27:58;;;;;;;12.88;4.70;;;;;;;;;;5091819;28;20068;-79
2022/03/13 00:30:28;;;;;;;8.73;4.32;;;;;;;;;;5096894;28;20135;-78
2022/03/13 00:32:56;;;;;;;15.88;4.93;;;;;;;;;;5095694;28;20047;-79
2022/03/13 00:35:24;;;;;;;8.85;4.05;;;;;;;;;;5089681;28;20075;-79
2022/03/13 00:37:53;;;;;;;11.60;4.70;;;;;;;;;;5093871;28;20071;-79
2022/03/13 00:40:21;;;;;;;12.38;4.55;;;;;;;;;;5096454;28;20051;-79
2022/03/13 00:42:50;;;;;;;10.15;4.50;;;;;;;;;;5089863;28;20153;-78
2022/03/13 00:45:18;;;;;;;11.25;4.53;;;;;;;;;;5098513;28;20575;-80
2022/03/13 00:47:48;;;;;;;9.05;4.53;;;;;;;;;;5102457;28;20052;-79
2022/03/13 00:50:16;;;;;;;12.68;5.32;;;;;;;;;;5100929;28;20052;-80
2022/03/13 00:52:45;;;;;;;7.30;3.95;;;;;;;;;;5111722;28;20048;-79
2022/03/13 00:55:13;;;;;;;12.68;5.13;;;;;;;;;;5103347;28;20058;-78
2022/03/13 00:57:43;;;;;;;12.48;5.25;;;;;;;;;;5087856;28;20055;-79
2022/03/13 01:00:13;;;;;;;11.98;4.72;;;;;;;;;;5094383;28;20070;-79
2022/03/13 01:02:42;;;;;;;9.27;4.63;;;;;;;;;;5103537;28;20052;-79
2022/03/13 01:05:12;;;;;;;9.35;4.60;;;;;;;;;;5099798;28;20052;-78
2022/03/13 01:07:40;;;;;;;11.25;4.32;;;;;;;;;;5100218;28;20075;-78
2022/03/13 01:10:13;;;;;;;10.43;5.38;;;;;;;;;;5088921;28;20055;-79
2022/03/13 01:12:41;;;;;;;10.63;4.95;;;;;;;;;;5092372;28;20083;-79
2022/03/13 01:15:12;;;;;;;9.65;4.72;;;;;;;;;;5097090;28;20130;-78
2022/03/13 01:17:40;;;;;;;7.72;4.30;;;;;;;;;;5094243;28;20467;-79
2022/03/13 01:20:14;;;;;;;9.80;4.60;;;;;;;;;;5094557;28;20067;-79
2022/03/13 01:22:45;;;;;;;8.23;5.00;;;;;;;;;;5117143;28;20066;-79
2022/03/13 01:25:13;;;;;;;10.45;4.75;;;;;;;;;;5105273;28;20102;-79
2022/03/13 01:27:42;;;;;;;10.70;5.70;;;;;;;;;;5102035;28;20043;-79
2022/03/13 01:30:13;;;;;;;10.80;5.07;;;;;;;;;;5103099;28;20059;-79
2022/03/13 01:32:42;;;;;;;11.32;4.53;;;;;;;;;;5101936;28;20051;-79
2022/03/13 01:35:11;;;;;;;10.00;4.97;;;;;;;;;;5107036;28;20097;-79
2022/03/13 01:37:40;;;;;;;9.65;4.70;;;;;;;;;;5111671;28;20074;-80
2022/03/13 01:40:19;;;;;;;11.13;4.22;;;;;;;;;;5094669;28;20083;-78
2022/03/13 01:42:48;;;;;;;7.95;4.50;;;;;;;;;;5099350;28;20044;-79
2022/03/13 01:45:17;;;;;;;8.20;4.55;;;;;;;;;;5107655;28;20040;-79
2022/03/13 01:47:45;;;;;;;11.93;6.03;;;;;;;;;;5108730;28;20044;-81
2022/03/13 01:50:14;;;;;;;13.40;5.15;;;;;;;;;;5103002;28;20052;-78
2022/03/13 01:52:46;;;;;;;12.48;5.18;;;;;;;;;;5092970;28;20045;-79
2022/03/13 01:55:17;;;;;;;12.45;5.60;;;;;;;;;;5096520;28;20044;-79
2022/03/13 01:57:47;;;;;;;12.20;5.40;;;;;;;;;;5106923;28;20058;-80
2022/03/13 02:00:20;;;;;;;10.52;4.72;;;;;;;;;;5107293;28;20044;-79
2022/03/13 02:02:48;;;;;;;11.63;5.30;;;;;;;;;;5095118;28;20304;-79
2022/03/13 02:05:34;;;;;;;10.60;4.70;;;;;;;;;;5076327;28;20121;-79
2022/03/13 02:08:08;;;;;;;16.45;5.22;;;;;;;;;;5099295;28;20072;-79
2022/03/13 02:10:37;;;;;;;12.43;5.45;;;;;;;;;;5100916;28;20040;-79
2022/03/13 02:13:10;;;;;;;9.50;4.70;;;;;;;;;;5097166;28;21047;-81
2022/03/13 02:15:39;;;;;;;10.80;5.30;;;;;;;;;;5095564;28;20122;-79
2022/03/13 02:18:08;;;;;;;11.73;5.28;;;;;;;;;;5106601;28;20044;-78
2022/03/13 02:20:40;;;;;;;9.40;4.70;;;;;;;;;;5101589;28;20082;-80
2022/03/13 02:23:16;;;;;;;11.05;5.07;;;;;;;;;;5112504;28;20044;-79
2022/03/13 02:25:45;;;;;;;11.57;4.97;;;;;;;;;;5114862;27;20042;-80
2022/03/13 02:28:14;;;;;;;14.20;4.63;;;;;;;;;;5107256;28;20028;-80
2022/03/13 02:30:43;;;;;;;12.45;5.22;;;;;;;;;;5106774;28;20458;-79
2022/03/13 02:33:11;;;;;;;9.77;4.85;;;;;;;;;;5097159;28;20075;-80
2022/03/13 02:35:40;;;;;;;10.40;4.80;;;;;;;;;;5099552;28;20092;-80
2022/03/13 02:38:10;;;;;;;10.60;5.03;;;;;;;;;;5101021;28;20028;-80
2022/03/13 02:40:38;;;;;;;10.57;5.18;;;;;;;;;;5099812;28;20068;-81
2022/03/13 02:43:07;;;;;;;11.15;5.15;;;;;;;;;;5107729;28;20047;-79
2022/03/13 02:45:36;;;;;;;15.27;5.35;;;;;;;;;;5099888;28;20029;-80
2022/03/13 02:48:05;;;;;;;12.38;4.68;;;;;;;;;;5106961;28;20051;-80
2022/03/13 02:50:34;;;;;;;10.68;4.03;;;;;;;;;;5101180;28;20036;-79
2022/03/13 02:53:02;;;;;;;10.43;4.35;;;;;;;;;;5107128;28;20083;-80
2022/03/13 02:55:32;;;;;;;9.88;4.38;;;;;;;;;;5104272;28;20040;-81
2022/03/13 02:58:00;;;;;;;8.50;4.55;;;;;;;;;;5108427;28;20069;-80
2022/03/13 03:00:42;;;;;;;12.57;5.13;;;;;;;;;;5098251;28;20033;-80
2022/03/13 03:03:12;;;;;;;8.25;4.50;;;;;;;;;;5100763;28;20066;-78
2022/03/13 03:05:41;;;;;;;11.20;5.07;;;;;;;;;;5084925;28;20036;-80
2022/03/13 03:08:09;;;;;;;10.88;4.97;;;;;;;;;;5103102;28;20047;-79
2022/03/13 03:10:39;;;;;;;8.25;4.43;;;;;;;;;;5109854;28;20048;-79
2022/03/13 03:13:08;;;;;;;11.23;4.80;;;;;;;;;;5107951;28;20052;-79
2022/03/13 03:15:37;;;;;;;9.43;4.63;;;;;;;;;;5108341;28;20060;-79
2022/03/13 03:18:05;;;;;;;9.23;4.97;;;;;;;;;;5099295;28;20050;-81
2022/03/13 03:20:34;;;;;;;10.32;4.05;;;;;;;;;;5108782;28;20028;-80
2022/03/13 03:23:02;;;;;;;14.00;5.07;;;;;;;;;;5104826;28;20035;-79
2022/03/13 03:25:31;;;;;;;11.02;4.70;;;;;;;;;;5113745;28;20047;-81
2022/03/13 03:28:00;;;;;;;10.23;4.35;;;;;;;;;;5101765;28;20040;-80
2022/03/13 03:30:29;;;;;;;10.43;4.15;;;;;;;;;;5100711;28;20043;-80
2022/03/13 03:32:58;;;;;;;10.20;5.00;;;;;;;;;;5101190;28;20045;-80
2022/03/13 03:35:27;;;;;;;11.70;4.40;;;;;;;;;;5098453;28;20037;-80
2022/03/13 03:37:56;;;;;;;8.50;4.47;;;;;;;;;;5110011;28;20037;-79
2022/03/13 03:40:25;;;;;;;7.13;4.07;;;;;;;;;;5104475;28;20035;-80
2022/03/13 03:42:55;;;;;;;7.93;4.10;;;;;;;;;;5097484;28;20066;-79
2022/03/13 03:45:25;;;;;;;10.90;4.75;;;;;;;;;;5100679;28;20028;-80
2022/03/13 03:47:54;;;;;;;10.50;5.53;;;;;;;;;;5102142;28;20083;-81
2022/03/13 03:50:22;;;;;;;9.88;4.63;;;;;;;;;;5100525;28;20028;-81
2022/03/13 03:52:55;;;;;;;10.35;4.45;;;;;;;;;;5100404;28;20043;-81
2022/03/13 03:55:23;;;;;;;8.40;4.88;;;;;;;;;;5108148;28;20047;-80
2022/03/13 03:57:51;;;;;;;10.88;4.22;;;;;;;;;;5103414;28;20058;-80
2022/03/13 04:00:23;;;;;;;6.55;4.22;;;;;;;;;;5101034;28;20032;-80
2022/03/13 04:02:54;;;;;;;13.52;5.05;;;;;;;;;;5099579;28;20036;-81
2022/03/13 04:05:23;;;;;;;10.48;4.07;;;;;;;;;;5114184;28;20043;-80
2022/03/13 04:07:51;;;;;;;8.75;4.40;;;;;;;;;;5103381;28;20040;-80
2022/03/13 04:10:19;;;;;;;8.90;4.53;;;;;;;;;;5105801;28;20070;-81
2022/03/13 04:12:48;;;;;;;9.73;4.95;;;;;;;;;;5097530;28;20048;-81
2022/03/13 04:15:16;;;;;;;10.73;4.80;;;;;;;;;;5110719;28;20055;-80
2022/03/13 04:17:44;;;;;;;8.82;5.15;;;;;;;;;;5106534;28;20025;-80
2022/03/13 04:20:14;;;;;;;11.75;4.88;;;;;;;;;;5082430;28;20032;-79
2022/03/13 04:22:42;;;;;;;10.63;4.68;;;;;;;;;;5103513;28;20044;-81
2022/03/13 04:25:11;;;;;;;10.93;4.68;;;;;;;;;;5111875;28;20128;-81
2022/03/13 04:27:40;;;;;;;11.55;4.18;;;;;;;;;;5111071;28;20024;-81
2022/03/13 04:30:09;;;;;;;9.50;4.55;;;;;;;;;;5106297;28;20059;-81
2022/03/13 04:32:39;;;;;;;15.48;4.82;;;;;;;;;;5102013;28;20047;-81
2022/03/13 04:35:07;;;;;;;11.45;5.07;;;;;;;;;;5110897;28;20055;-80
2022/03/13 04:37:37;;;;;;;8.77;4.70;;;;;;;;;;5101102;28;20045;-79
2022/03/13 04:40:06;;;;;;;9.18;4.55;;;;;;;;;;5106448;28;20063;-80
2022/03/13 04:42:34;;;;;;;17.02;5.68;;;;;;;;;;5108250;28;20055;-80
2022/03/13 04:45:06;;;;;;;11.90;4.78;;;;;;;;;;5096096;28;20053;-80
2022/03/13 04:47:35;;;;;;;10.98;5.05;;;;;;;;;;5101653;28;20609;-79
2022/03/13 04:50:03;;;;;;;10.68;4.20;;;;;;;;;;5101965;28;20045;-80
2022/03/13 04:52:31;;;;;;;8.10;4.30;;;;;;;;;;5103880;28;20043;-80
2022/03/13 04:55:02;;;;;;;13.05;4.53;;;;;;;;;;5106957;28;20032;-80
2022/03/13 04:57:30;;;;;;;8.60;4.80;;;;;;;;;;5117512;28;20153;-81
2022/03/13 04:59:58;;;;;;;9.77;4.78;;;;;;;;;;5104070;28;20043;-81
2022/03/13 05:02:27;;;;;;;9.65;5.00;;;;;;;;;;5115547;28;20043;-80
2022/03/13 05:04:56;;;;;;;12.32;5.25;;;;;;;;;;5106701;28;20056;-80
2022/03/13 05:07:24;;;;;;;10.80;4.20;;;;;;;;;;5111405;28;20040;-80
2022/03/13 05:09:52;;;;;;;11.27;4.82;;;;;;;;;;5109064;28;20043;-81
2022/03/13 05:12:24;;;;;;;11.75;4.57;;;;;;;;;;5115542;28;20057;-80
2022/03/13 05:14:53;;;;;;;9.65;4.70;;;;;;;;;;5100531;28;20024;-80
2022/03/13 05:17:21;;;;;;;9.57;4.65;;;;;;;;;;5111735;28;20075;-80
2022/03/13 05:19:49;;;;;;;11.02;4.95;;;;;;;;;;5095116;28;20087;-79
2022/03/13 05:22:18;;;;;;;11.77;4.78;;;;;;;;;;5084558;28;21219;-79
2022/03/13 05:24:46;;;;;;;9.60;4.53;;;;;;;;;;5088240;28;20108;-80
2022/03/13 05:27:14;;;;;;;11.25;4.80;;;;;;;;;;5102419;28;20044;-79
2022/03/13 05:29:44;;;;;;;11.45;4.32;;;;;;;;;;5088969;28;20071;-79
2022/03/13 05:32:12;;;;;;;11.93;4.05;;;;;;;;;;5083046;28;20534;-78
2022/03/13 05:34:40;;;;;;;10.32;4.68;;;;;;;;;;5086158;28;20103;-79
2022/03/13 05:37:09;;;;;;;15.20;4.65;;;;;;;;;;5100621;28;20059;-79
2022/03/13 05:39:37;;;;;;;9.27;4.93;;;;;;;;;;5093907;28;20091;-78
2022/03/13 05:42:06;;;;;;;8.25;4.63;;;;;;;;;;5094928;28;20127;-79
2022/03/13 05:44:36;;;;;;;10.05;5.20;;;;;;;;;;5098708;28;20071;-78
2022/03/13 05:47:06;;;;;;;8.93;4.30;;;;;;;;;;5099087;28;20081;-78
2022/03/13 05:49:35;;;;;;;14.45;4.47;;;;;;;;;;5103715;28;20043;-79
2022/03/13 05:52:04;;;;;;;11.52;4.43;;;;;;;;;;5095672;28;20083;-79
2022/03/13 05:54:32;;;;;;;8.52;4.07;;;;;;;;;;5093802;28;20041;-79
2022/03/13 05:57:04;;;;;;;9.23;3.97;;;;;;;;;;5098691;28;20498;-80
2022/03/13 05:59:33;;;;;;;8.15;4.78;;;;;;;;;;5090255;28;20045;-79
2022/03/13 06:02:02;;;;;;;9.18;4.10;;;;;;;;;;5084117;28;20071;-79
2022/03/13 06:04:34;;;;;;;9.27;4.00;;;;;;;;;;5087484;28;20101;-80
2022/03/13 06:07:03;;;;;;;11.07;4.78;;;;;;;;;;5091531;28;20501;-78
2022/03/13 06:09:31;;;;;;;10.18;4.13;;;;;;;;;;5088315;28;20068;-79
2022/03/13 06:12:00;;;;;;;13.15;4.10;;;;;;;;;;5095230;28;20495;-79
2022/03/13 06:14:28;;;;;;;9.82;5.03;;;;;;;;;;5095742;28;20040;-78
2022/03/13 06:16:56;;;;;;;9.13;4.20;;;;;;;;;;5093228;28;20100;-78
2022/03/13 06:19:24;;;;;;;8.18;3.78;;;;;;;;;;5097400;28;20103;-79
2022/03/13 06:21:54;;;;;;;12.90;4.65;;;;;;;;;;5099730;28;20048;-77
2022/03/13 06:24:24;;;;;;;9.18;4.00;;;;;;;;;;5103152;28;20184;-78
2022/03/13 06:26:53;;;;;;;12.15;5.20;;;;;;;;;;5091048;28;20048;-78
2022/03/13 06:29:22;;;;;;;9.23;3.90;;;;;;;;;;5095987;28;20150;-78
2022/03/13 06:31:52;;;;;;;10.95;4.30;;;;;;;;;;5097011;28;20051;-79
2022/03/13 06:34:21;;;;;;;9.13;4.53;;;;;;;;;;5092154;28;20570;-79
2022/03/13 06:36:49;;;;;;;9.10;4.18;;;;;;;;;;5087624;28;20072;-80
2022/03/13 06:39:19;;;;;;;9.25;4.22;;;;;;;;;;5088557;28;20056;-78
2022/03/13 06:41:47;;;;;;;10.50;4.38;;;;;;;;;;5089391;28;20171;-79
2022/03/13 06:44:16;;;;;;;11.23;5.20;;;;;;;;;;5082555;28;20487;-78
2022/03/13 06:46:44;;;;;;;9.40;4.40;;;;;;;;;;5092028;28;20288;-78
2022/03/13 06:49:12;;;;;;;9.07;4.38;;;;;;;;;;5084010;28;20071;-78
2022/03/13 06:51:41;;;;;;;12.60;5.50;;;;;;;;;;5085614;28;20167;-79
2022/03/13 06:54:09;;;;;;;12.48;4.93;;;;;;;;;;5091232;28;20098;-79
2022/03/13 06:56:40;;;;;;;9.13;4.55;;;;;;;;;;5092798;28;20091;-79
2022/03/13 06:59:08;;;;;;;12.02;5.15;;;;;;;;;;5088142;28;20075;-79
2022/03/13 07:01:37;;;;;;;11.07;4.28;;;;;;;;;;5078324;28;20399;-79
2022/03/13 07:04:06;;;;;;;10.13;5.28;;;;;;;;;;5089327;28;20056;-78
2022/03/13 07:06:35;;;;;;;8.63;4.53;;;;;;;;;;5089684;28;20084;-78
2022/03/13 07:09:10;;;;;;;12.15;4.95;;;;;;;;;;5089394;28;20491;-79
2022/03/13 07:11:59;;;;;;;8.65;4.43;;;;;;;;;;5090099;28;20073;-79
2022/03/13 07:14:30;;;;;;;11.40;3.75;;;;;;;;;;5103188;28;20024;-80
2022/03/13 07:17:00;;;;;;;10.05;3.80;;;;;;;;;;5100660;28;20027;-79
2022/03/13 07:19:29;;;;;;;10.90;5.15;;;;;;;;;;5102221;28;20040;-79
2022/03/13 07:21:57;;;;;;;9.68;4.47;;;;;;;;;;5082153;28;20044;-79
2022/03/13 07:24:25;;;;;;;9.38;4.53;;;;;;;;;;5115979;28;20026;-80
2022/03/13 07:26:54;;;;;;;9.23;4.68;;;;;;;;;;5105736;28;20040;-80
2022/03/13 07:29:26;;;;;;;10.40;4.53;;;;;;;;;;5105164;28;20028;-79
2022/03/13 07:31:56;;;;;;;9.05;4.82;;;;;;;;;;5105551;27;20039;-79
2022/03/13 07:34:24;;;;;;;10.63;4.53;;;;;;;;;;5113501;28;20054;-80
2022/03/13 07:36:53;;;;;;;10.23;5.03;;;;;;;;;;5106351;28;20040;-80
2022/03/13 07:39:22;;;;;;;14.13;5.00;;;;;;;;;;5108916;28;20047;-79
2022/03/13 07:41:50;;;;;;;9.57;4.47;;;;;;;;;;5104758;28;20048;-80
2022/03/13 07:44:19;;;;;;;8.15;4.22;;;;;;;;;;5103633;28;20027;-79
2022/03/13 07:46:49;;;;;;;10.55;5.72;;;;;;;;;;5114698;28;20028;-80
2022/03/13 07:49:17;;;;;;;13.70;5.63;;;;;;;;;;5106608;28;20059;-80
2022/03/13 07:51:46;;;;;;;20.88;5.65;;;;;;;;;;5102498;28;20024;-80
2022/03/13 07:54:15;;;;;;;8.63;4.75;;;;;;;;;;5105390;28;20309;-79
2022/03/13 07:56:43;;;;;;;11.70;4.60;;;;;;;;;;5103497;28;20051;-79
2022/03/13 07:59:11;;;;;;;11.50;5.63;;;;;;;;;;5103895;28;20039;-79
2022/03/13 08:01:40;;;;;;;15.63;5.95;;;;;;;;;;5100985;28;20029;-79
2022/03/13 08:04:09;;;;;;;15.05;5.63;;;;;;;;;;5091888;28;20049;-79
2022/03/13 08:06:39;;;;;;;16.80;6.40;;;;;;;;;;5105936;28;20036;-80
2022/03/13 08:09:08;;;;;;;13.43;5.25;;;;;;;;;;5100354;28;20023;-79
2022/03/13 08:11:38;;;;;;;13.23;5.97;;;;;;;;;;5074245;28;20121;-80
2022/03/13 08:14:07;;;;;;;16.95;5.43;;;;;;;;;;5104350;28;20069;-79
2022/03/13 08:16:36;;;;;;;15.45;5.97;;;;;;;;;;5099010;28;20036;-79
2022/03/13 08:19:05;;;;;;;13.60;6.72;;;;;;;;;;5106864;28;20048;-80
2022/03/13 08:21:35;;;;;;;14.38;5.68;;;;;;;;;;5110633;28;20199;-79
2022/03/13 08:24:05;;;;;;;14.18;5.95;;;;;;;;;;5105692;28;20062;-80
2022/03/13 08:26:35;;;;;;;13.45;5.80;;;;;;;;;;5114559;28;20065;-79
2022/03/13 08:29:03;;;;;;;10.93;6.20;;;;;;;;;;5106977;28;20037;-80
2022/03/13 08:31:32;;;;;;;12.32;5.53;;;;;;;;;;5111088;28;20051;-80
2022/03/13 08:34:01;;;;;;;11.07;5.85;;;;;;;;;;5106436;28;20050;-80
2022/03/13 08:36:29;;;;;;;13.10;5.93;;;;;;;;;;5095706;28;20354;-80
2022/03/13 08:38:59;;;;;;;11.88;5.35;;;;;;;;;;5103897;28;20064;-81
2022/03/13 08:41:27;;;;;;;10.95;6.32;;;;;;;;;;5099352;28;20035;-81
2022/03/13 08:43:55;;;;;;;14.98;6.25;;;;;;;;;;5097216;28;20064;-81
2022/03/13 08:46:24;;;;;;;11.02;5.47;;;;;;;;;;5091583;28;20044;-83
2022/03/13 08:48:52;;;;;;;15.27;5.95;;;;;;;;;;5094962;28;20033;-88
2022/03/13 08:51:23;;;;;;;11.98;5.18;;;;;;;;;;5102520;28;20037;-85
2022/03/13 08:53:52;;;;;;;13.52;5.35;;;;;;;;;;5102972;28;20032;-88
2022/03/13 08:56:22;;;;;;;11.80;6.70;;;;;;;;;;5104244;28;20280;-87
2022/03/13 08:58:50;;;;;;;14.07;5.90;;;;;;;;;;5095106;28;20036;-88
2022/03/13 09:01:19;;;;;;;14.25;6.28;;;;;;;;;;5103142;28;20044;-87
2022/03/13 09:03:47;;;;;;;15.43;5.80;;;;;;;;;;5100275;28;20033;-88
2022/03/13 09:06:15;;;;;;;13.80;6.20;;;;;;;;;;5100192;28;20414;-87
2022/03/13 09:08:44;;;;;;;15.48;6.15;;;;;;;;;;5112043;28;20043;-87
2022/03/13 09:11:12;;;;;;;11.15;6.15;;;;;;;;;;5104729;28;20326;-88
2022/03/13 09:13:44;;;;;;;15.43;6.97;;;;;;;;;;5097791;28;20032;-86
2022/03/13 09:16:14;;;;;;;16.40;6.78;;;;;;;;;;5099173;28;20020;-87
2022/03/13 09:18:42;;;;;;;14.77;5.75;;;;;;;;;;5110489;28;20045;-85
2022/03/13 09:21:11;;;;;;;12.75;6.07;;;;;;;;;;5108111;28;20117;-87
2022/03/13 09:23:39;;;;;;;12.77;5.60;;;;;;;;;;5102594;28;20024;-88
2022/03/13 09:26:10;;;;;;;9.93;5.57;;;;;;;;;;5105412;28;20042;-88
2022/03/13 09:28:38;;;;;;;13.52;6.18;;;;;;;;;;5095186;28;20036;-88
2022/03/13 09:31:11;;;;;;;12.07;5.93;;;;;;;;;;5110032;28;20100;-85
2022/03/13 09:33:40;;;;;;;12.32;5.75;;;;;;;;;;5096949;28;20033;-86
2022/03/13 09:36:11;;;;;;;14.82;6.50;;;;;;;;;;5103571;27;20044;-88
2022/03/13 09:38:40;;;;;;;15.05;6.15;;;;;;;;;;5099858;28;20071;-88
2022/03/13 09:41:09;;;;;;;12.18;5.68;;;;;;;;;;5103917;28;20055;-88
2022/03/13 09:43:38;;;;;;;15.40;6.55;;;;;;;;;;5098417;28;20025;-86
2022/03/13 09:46:11;;;;;;;14.02;6.55;;;;;;;;;;5096667;28;20066;-89
2022/03/13 09:48:40;;;;;;;12.45;5.80;;;;;;;;;;5099002;28;20032;-88
2022/03/13 09:51:10;;;;;;;11.60;6.10;;;;;;;;;;5095352;28;20028;-86
2022/03/13 09:53:39;;;;;;;13.73;6.45;;;;;;;;;;5098546;28;20104;-91
2022/03/13 09:56:11;;;;;;;14.38;6.28;;;;;;;;;;5097683;28;20028;-88
2022/03/13 09:58:44;;;;;;;13.27;6.43;;;;;;;;;;5110132;28;20025;-85
2022/03/13 10:01:14;;;;;;;15.07;6.28;;;;;;;;;;5112642;28;20027;-88
2022/03/13 10:03:43;;;;;;;12.50;5.95;;;;;;;;;;5096569;28;20033;-88
2022/03/13 10:06:13;;;;;;;12.65;6.68;;;;;;;;;;5096108;28;20051;-86
2022/03/13 10:08:42;;;;;;;16.02;6.68;;;;;;;;;;5096375;28;20070;-83
2022/03/13 10:11:11;;;;;;;11.45;5.78;;;;;;;;;;5097989;28;20033;-86
2022/03/13 10:13:41;;;;;;;13.43;6.70;;;;;;;;;;5101635;28;20032;-89
2022/03/13 10:16:15;;;;;;;13.40;6.80;;;;;;;;;;5105898;28;20038;-85
2022/03/13 10:18:46;;;;;;;11.85;6.60;;;;;;;;;;5093141;28;20023;-87
2022/03/13 10:21:16;;;;;;;15.23;7.07;;;;;;;;;;5108051;28;20056;-87
2022/03/13 10:23:47;;;;;;;14.55;7.03;;;;;;;;;;5100697;28;20024;-88
2022/03/13 10:26:18;;;;;;;12.40;6.20;;;;;;;;;;5107082;28;20032;-87
2022/03/13 10:28:46;;;;;;;14.70;7.07;;;;;;;;;;5102036;28;20043;-88
2022/03/13 10:31:16;;;;;;;11.88;6.28;;;;;;;;;;5101735;28;20024;-88
2022/03/13 10:33:58;;;;;;;15.70;6.97;;;;;;;;;;5104980;27;20028;-83
2022/03/13 10:36:34;;;;;;;12.90;6.60;;;;;;;;;;5101689;28;20048;-88
2022/03/13 10:39:05;;;;;;;14.27;6.47;;;;;;;;;;5103373;28;20054;-88
2022/03/13 10:41:43;;;;;;;13.25;5.90;;;;;;;;;;5102740;28;20021;-84
2022/03/13 10:44:16;;;;;;;13.73;6.30;;;;;;;;;;5107046;28;20043;-85
2022/03/13 10:46:48;;;;;;;15.43;6.85;;;;;;;;;;5110982;28;20054;-84
2022/03/13 10:49:32;;;;;;;13.23;6.95;;;;;;;;;;5105266;27;20061;-83
2022/03/13 10:52:01;;;;;;;13.57;6.47;;;;;;;;;;5102121;28;20040;-85
2022/03/13 10:54:31;;;;;;;12.48;6.50;;;;;;;;;;5091739;28;20032;-85
2022/03/13 10:57:06;;;;;;;13.98;6.93;;;;;;;;;;5102803;28;20057;-86
2022/03/13 10:59:35;;;;;;;13.07;6.40;;;;;;;;;;5096834;28;20054;-85
2022/03/13 11:02:14;;;;;;;13.93;6.57;;;;;;;;;;5107271;28;20095;-86
2022/03/13 11:04:49;;;;;;;13.50;7.25;;;;;;;;;;5104214;28;20096;-86
2022/03/13 11:07:18;;;;;;;13.90;5.85;;;;;;;;;;5100588;28;20025;-85
2022/03/13 11:09:47;;;;;;;17.15;7.35;;;;;;;;;;5101559;28;20048;-84
2022/03/13 11:12:20;;;;;;;13.43;6.72;;;;;;;;;;5104680;28;20052;-85
2022/03/13 11:14:50;;;;;;;13.13;6.65;;;;;;;;;;5108555;28;20117;-87
2022/03/13 11:17:19;;;;;;;12.98;6.38;;;;;;;;;;5098367;28;20048;-88
2022/03/13 11:19:50;;;;;;;11.75;6.25;;;;;;;;;;5100090;28;20025;-85
2022/03/13 11:22:20;;;;;;;13.63;6.53;;;;;;;;;;5101952;28;20032;-86
2022/03/13 11:24:49;;;;;;;13.07;6.97;;;;;;;;;;5114920;28;20033;-87
2022/03/13 11:27:18;;;;;;;13.80;7.05;;;;;;;;;;5107743;28;20020;-84
2022/03/13 11:29:47;;;;;;;14.30;6.53;;;;;;;;;;5113105;28;20032;-84
2022/03/13 11:32:29;;;;;;;12.30;6.90;;;;;;;;;;5108453;28;20075;-82
2022/03/13 11:35:29;;;;;;;17.45;6.95;;;;;;;;;;5105259;28;20067;-86
2022/03/13 11:38:14;;;;;;;13.52;6.55;;;;;;;;;;5039519;28;20034;-86
2022/03/13 11:40:44;;;;;;;13.70;7.03;;;;;;;;;;5094731;28;20047;-83
2022/03/13 11:43:17;;;;;;;14.77;6.53;;;;;;;;;;5114689;28;20048;-84
2022/03/13 11:45:50;;;;;;;12.65;6.35;;;;;;;;;;5111759;28;20035;-86
2022/03/13 11:48:43;;;;;;;14.68;5.55;;;;;;;;;;5106737;27;20033;-84
2022/03/13 11:51:15;;;;;;;12.40;6.47;;;;;;;;;;5075259;28;20059;-83
2022/03/13 11:53:48;;;;;;;13.25;6.55;;;;;;;;;;5096653;28;20037;-86
2022/03/13 11:56:26;;;;;;;14.00;6.68;;;;;;;;;;5106467;28;20048;-87
2022/03/13 11:58:55;;;;;;;12.50;6.88;;;;;;;;;;5114289;28;20054;-85
2022/03/13 12:01:37;;;;;;;20.92;7.22;;;;;;;;;;5100551;28;20048;-85
2022/03/13 12:04:24;;;;;;;11.63;5.60;;;;;;;;;;5092191;28;20044;-82
2022/03/13 12:06:56;;;;;;;13.57;6.05;;;;;;;;;;5100354;28;20036;-82
2022/03/13 12:09:42;;;;;;;13.43;6.65;;;;;;;;;;5097715;28;20044;-82
2022/03/13 12:12:14;;;;;;;13.73;7.03;;;;;;;;;;5099705;28;20039;-86
2022/03/13 12:14:53;;;;;;;14.45;7.57;;;;;;;;;;5097142;28;20020;-86
2022/03/13 12:17:23;;;;;;;15.63;7.30;;;;;;;;;;5099119;28;20039;-85
2022/03/13 12:19:52;;;;;;;14.23;7.38;;;;;;;;;;5064921;28;20064;-89
2022/03/13 12:22:25;;;;;;;16.60;7.50;;;;;;;;;;5061534;28;20294;-86
2022/03/13 12:24:54;;;;;;;17.90;7.72;;;;;;;;;;5053995;28;20030;-85
2022/03/13 12:27:25;;;;;;;14.48;7.30;;;;;;;;;;5054412;28;20029;-84
2022/03/13 12:29:55;;;;;;;14.75;7.35;;;;;;;;;;5066192;28;20033;-85
2022/03/13 12:32:29;;;;;;;13.43;6.80;;;;;;;;;;5053737;28;20087;-85
2022/03/13 12:34:58;;;;;;;10.98;6.43;;;;;;;;;;5051977;28;20029;-85
2022/03/13 12:37:28;;;;;;;12.50;6.80;;;;;;;;;;5055734;28;20041;-83
2022/03/13 12:39:59;;;;;;;16.75;6.75;;;;;;;;;;5053151;28;20045;-88
2022/03/13 12:42:34;;;;;;;14.20;7.40;;;;;;;;;;5052654;28;20042;-85
2022/03/13 12:45:05;;;;;;;12.85;6.35;;;;;;;;;;5062206;28;20044;-85
2022/03/13 12:47:39;;;;;;;15.68;7.38;;;;;;;;;;5106567;28;20080;-87
2022/03/13 12:50:11;;;;;;;15.18;7.07;;;;;;;;;;5096469;28;20052;-83
2022/03/13 12:52:41;;;;;;;14.80;7.57;;;;;;;;;;5095820;28;20059;-85
2022/03/13 12:55:10;;;;;;;15.00;7.55;;;;;;;;;;5102978;28;20092;-84
2022/03/13 12:57:40;;;;;;;15.32;7.30;;;;;;;;;;5102114;28;20024;-84
2022/03/13 13:00:10;;;;;;;16.13;7.75;;;;;;;;;;5102282;28;20112;-83
2022/03/13 13:02:39;;;;;;;14.63;7.70;;;;;;;;;;5094303;28;20025;-80
2022/03/13 13:05:13;;;;;;;12.52;7.10;;;;;;;;;;5092542;28;20041;-84
2022/03/13 13:07:42;;;;;;;14.23;7.65;;;;;;;;;;5095812;28;20032;-82
2022/03/13 13:10:12;;;;;;;14.95;7.78;;;;;;;;;;5103483;28;20067;-84
2022/03/13 13:12:43;;;;;;;17.15;7.90;;;;;;;;;;5107671;28;20108;-80
2022/03/13 13:15:12;;;;;;;13.13;6.82;;;;;;;;;;5096035;28;20056;-84
2022/03/13 13:17:43;;;;;;;14.35;7.68;;;;;;;;;;5097790;28;20036;-80
2022/03/13 13:20:20;;;;;;;16.02;7.22;;;;;;;;;;5093566;28;20100;-83
2022/03/13 13:22:48;;;;;;;11.82;6.70;;;;;;;;;;5100182;28;20129;-84
2022/03/13 13:25:19;;;;;;;13.80;7.40;;;;;;;;;;5115403;28;20074;-81
2022/03/13 13:27:51;;;;;;;17.90;7.88;;;;;;;;;;5106077;28;20086;-84
2022/03/13 13:30:23;;;;;;;13.73;6.57;;;;;;;;;;5102321;28;20055;-80
2022/03/13 13:32:52;;;;;;;13.18;6.65;;;;;;;;;;5096681;28;20048;-85
2022/03/13 13:35:29;;;;;;;15.65;6.82;;;;;;;;;;5103233;28;20261;-84
2022/03/13 13:38:02;;;;;;;13.80;6.80;;;;;;;;;;5108515;28;20078;-84
2022/03/13 13:40:33;;;;;;;15.13;6.55;;;;;;;;;;5096954;28;20028;-84
2022/03/13 13:43:06;;;;;;;13.35;6.68;;;;;;;;;;5110591;28;20026;-85
2022/03/13 13:45:36;;;;;;;13.38;6.13;;;;;;;;;;5104349;27;20063;-84
2022/03/13 13:48:24;;;;;;;15.38;6.85;;;;;;;;;;5101235;28;20032;-84
2022/03/13 13:51:10;;;;;;;13.02;6.68;;;;;;;;;;5101061;28;20041;-84
2022/03/13 13:53:56;;;;;;;16.52;7.38;;;;;;;;;;5101902;28;20029;-83
2022/03/13 13:56:29;;;;;;;11.27;6.03;;;;;;;;;;5098794;28;20059;-80
2022/03/13 13:59:00;;;;;;;11.73;6.03;;;;;;;;;;5099845;28;20035;-85
2022/03/13 14:01:31;;;;;;;14.02;7.10;;;;;;;;;;5101749;28;20053;-84
2022/03/13 14:04:02;;;;;;;11.23;5.65;;;;;;;;;;5105578;28;20031;-84
2022/03/13 14:06:34;;;;;;;13.60;6.28;;;;;;;;;;5099902;28;20029;-84
2022/03/13 14:09:03;;;;;;;10.82;5.65;;;;;;;;;;5106527;28;20051;-85
2022/03/13 14:11:33;;;;;;;12.70;5.30;;;;;;;;;;5096906;28;20032;-83
2022/03/13 14:14:04;;;;;;;9.38;5.15;;;;;;;;;;5104943;28;20036;-83
2022/03/13 14:16:34;;;;;;;11.00;5.72;;;;;;;;;;5113993;28;20054;-84
2022/03/13 14:19:21;;;;;;;14.45;5.97;;;;;;;;;;5114527;28;20057;-83
2022/03/13 14:21:51;;;;;;;12.93;6.20;;;;;;;;;;5094707;28;20049;-83
2022/03/13 14:24:22;;;;;;;13.20;6.55;;;;;;;;;;5106253;28;20024;-83
2022/03/13 14:26:52;;;;;;;13.57;7.10;;;;;;;;;;5111988;28;20056;-82
2022/03/13 14:29:23;;;;;;;12.65;7.10;;;;;;;;;;5100400;28;20028;-82
2022/03/13 14:31:53;;;;;;;14.55;6.25;;;;;;;;;;5100917;28;20044;-83
2022/03/13 14:34:23;;;;;;;13.05;7.15;;;;;;;;;;5104348;28;20035;-81
2022/03/13 14:36:58;;;;;;;13.35;6.60;;;;;;;;;;5098940;28;20053;-81
2022/03/13 14:39:28;;;;;;;12.35;6.60;;;;;;;;;;5101701;28;20055;-80
2022/03/13 14:41:57;;;;;;;14.10;6.70;;;;;;;;;;5092689;28;20053;-81
2022/03/13 14:44:27;;;;;;;14.68;7.43;;;;;;;;;;5098988;28;20049;-84
2022/03/13 14:46:57;;;;;;;14.10;7.13;;;;;;;;;;5110811;28;20506;-83
2022/03/13 14:49:27;;;;;;;12.18;6.55;;;;;;;;;;5095842;28;20104;-82
2022/03/13 14:51:56;;;;;;;15.85;8.13;;;;;;;;;;5097101;28;20047;-82